sensor_id;sensor_type;location;lat;lon;timestamp;pressure;altitude;pressure_sealevel;temperature;humidity
20077;BME280;12348;42.710;23.378;2022-10-30T00:00:26;95929.41;;;7.62;100.00
20077;BME280;12348;42.710;23.378;2022-10-30T00:02:53;95921.03;;;7.53;100.00
20077;BME280;12348;42.710;23.378;2022-10-30T00:05:20;95921.91;;;7.59;100.00
20077;BME280;12348;42.710;23.378;2022-10-30T00:07:49;95920.88;;;7.65;100.00
20077;BME280;12348;42.710;23.378;2022-10-30T00:10:17;95923.22;;;7.56;100.00
20077;BME280;12348;42.710;23.378;2022-10-30T00:12:44;95920.78;;;7.55;100.00
20077;BME280;12348;42.710;23.378;2022-10-30T00:15:11;95926.25;;;7.43;100.00
20077;BME280;12348;42.710;23.378;2022-10-30T00:17:37;95925.41;;;7.37;100.00
20077;BME280;12348;42.710;23.378;2022-10-30T00:20:05;95920.47;;;7.29;100.00
20077;BME280;12348;42.710;23.378;2022-10-30T00:22:34;95925.88;;;7.12;100.00
20077;BME280;12348;42.710;23.378;2022-10-30T00:25:02;95923.78;;;6.97;100.00
20077;BME280;12348;42.710;23.378;2022-10-30T00:27:29;95932.31;;;6.94;100.00
20077;BME280;12348;42.710;23.378;2022-10-30T00:29:56;95935.91;;;6.83;100.00
20077;BME280;12348;42.710;23.378;2022-10-30T00:32:23;95930.09;;;6.69;100.00
20077;BME280;12348;42.710;23.378;2022-10-30T00:34:50;95931.22;;;6.56;100.00
20077;BME280;12348;42.710;23.378;2022-10-30T00:37:16;95922.97;;;6.41;100.00
20077;BME280;12348;42.710;23.378;2022-10-30T00:39:43;95928.25;;;6.36;100.00
20077;BME280;12348;42.710;23.378;2022-10-30T00:42:13;95928.97;;;6.31;100.00
20077;BME280;12348;42.710;23.378;2022-10-30T00:44:44;95912.09;;;6.31;100.00
20077;BME280;12348;42.710;23.378;2022-10-30T00:47:17;95919.41;;;6.19;100.00
20077;BME280;12348;42.710;23.378;2022-10-30T00:49:50;95924.75;;;6.19;100.00
20077;BME280;12348;42.710;23.378;2022-10-30T00:52:20;95923.78;;;6.25;100.00
20077;BME280;12348;42.710;23.378;2022-10-30T00:54:49;95921.66;;;6.27;100.00
20077;BME280;12348;42.710;23.378;2022-10-30T00:57:19;95908.88;;;6.29;100.00
20077;BME280;12348;42.710;23.378;2022-10-30T00:59:47;95906.75;;;6.31;100.00
20077;BME280;12348;42.710;23.378;2022-10-30T01:02:15;95903.03;;;6.32;100.00
20077;BME280;12348;42.710;23.378;2022-10-30T01:04:44;95900.59;;;6.30;100.00
20077;BME280;12348;42.710;23.378;2022-10-30T01:07:14;95898.34;;;6.39;100.00
20077;BME280;12348;42.710;23.378;2022-10-30T01:09:42;95893.38;;;6.31;100.00
20077;BME280;12348;42.710;23.378;2022-10-30T01:12:09;95898.19;;;6.29;100.00
20077;BME280;12348;42.710;23.378;2022-10-30T01:14:39;95887.47;;;6.29;100.00
20077;BME280;12348;42.710;23.378;2022-10-30T01:17:32;95879.78;;;6.32;100.00
20077;BME280;12348;42.710;23.378;2022-10-30T01:20:13;95878.81;;;6.39;100.00
20077;BME280;12348;42.710;23.378;2022-10-30T01:22:53;95878.50;;;6.35;100.00
20077;BME280;12348;42.710;23.378;2022-10-30T01:25:35;95884.31;;;6.32;100.00
20077;BME280;12348;42.710;23.378;2022-10-30T01:28:11;95878.06;;;6.26;100.00
20077;BME280;12348;42.710;23.378;2022-10-30T01:30:59;95892.03;;;6.28;100.00
20077;BME280;12348;42.710;23.378;2022-10-30T01:33:35;95884.00;;;6.28;100.00
20077;BME280;12348;42.710;23.378;2022-10-30T01:36:12;95875.66;;;6.25;100.00
20077;BME280;12348;42.710;23.378;2022-10-30T01:38:46;95875.06;;;6.23;100.00
20077;BME280;12348;42.710;23.378;2022-10-30T01:41:15;95876.06;;;6.17;100.00
20077;BME280;12348;42.710;23.378;2022-10-30T01:43:42;95880.28;;;6.13;100.00
20077;BME280;12348;42.710;23.378;2022-10-30T01:46:30;95863.31;;;6.07;100.00
20077;BME280;12348;42.710;23.378;2022-10-30T01:49:18;95872.00;;;6.14;100.00
20077;BME280;12348;42.710;23.378;2022-10-30T01:51:55;95875.31;;;6.04;100.00
20077;BME280;12348;42.710;23.378;2022-10-30T01:54:32;95879.28;;;6.02;100.00
20077;BME280;12348;42.710;23.378;2022-10-30T01:57:07;95876.19;;;5.93;100.00
20077;BME280;12348;42.710;23.378;2022-10-30T01:59:39;95879.00;;;5.87;100.00
20077;BME280;12348;42.710;23.378;2022-10-30T02:02:08;95877.53;;;5.79;100.00
20077;BME280;12348;42.710;23.378;2022-10-30T02:04:36;95877.03;;;5.82;100.00
20077;BME280;12348;42.710;23.378;2022-10-30T02:07:03;95874.03;;;5.78;100.00
20077;BME280;12348;42.710;23.378;2022-10-30T02:09:30;95874.88;;;5.79;100.00
20077;BME280;12348;42.710;23.378;2022-10-30T02:11:57;95871.94;;;5.80;100.00
20077;BME280;12348;42.710;23.378;2022-10-30T02:14:28;95867.31;;;5.76;100.00
20077;BME280;12348;42.710;23.378;2022-10-30T02:16:57;95862.94;;;5.70;100.00
20077;BME280;12348;42.710;23.378;2022-10-30T02:19:27;95865.84;;;5.68;100.00
20077;BME280;12348;42.710;23.378;2022-10-30T02:21:55;95862.84;;;5.65;100.00
20077;BME280;12348;42.710;23.378;2022-10-30T02:24:22;95861.47;;;5.62;100.00
20077;BME280;12348;42.710;23.378;2022-10-30T02:26:49;95865.81;;;5.51;100.00
20077;BME280;12348;42.710;23.378;2022-10-30T02:29:15;95858.47;;;5.58;100.00
20077;BME280;12348;42.710;23.378;2022-10-30T02:31:45;95859.03;;;5.61;100.00
20077;BME280;12348;42.710;23.378;2022-10-30T02:34:11;95857.25;;;5.49;100.00
20077;BME280;12348;42.710;23.378;2022-10-30T02:36:38;95862.47;;;5.44;100.00
20077;BME280;12348;42.710;23.378;2022-10-30T02:39:06;95862.38;;;5.39;100.00
20077;BME280;12348;42.710;23.378;2022-10-30T02:41:33;95865.59;;;5.41;100.00
20077;BME280;12348;42.710;23.378;2022-10-30T02:44:00;95868.06;;;5.43;100.00
20077;BME280;12348;42.710;23.378;2022-10-30T02:46:27;95872.47;;;5.37;100.00
20077;BME280;12348;42.710;23.378;2022-10-30T02:48:53;95862.66;;;5.26;100.00
20077;BME280;12348;42.710;23.378;2022-10-30T02:51:20;95866.50;;;5.18;100.00
20077;BME280;12348;42.710;23.378;2022-10-30T02:53:47;95878.34;;;5.22;100.00
20077;BME280;12348;42.710;23.378;2022-10-30T02:56:15;95873.25;;;5.21;100.00
20077;BME280;12348;42.710;23.378;2022-10-30T02:58:43;95881.72;;;5.18;100.00
20077;BME280;12348;42.710;23.378;2022-10-30T03:01:12;95879.28;;;5.16;100.00
20077;BME280;12348;42.710;23.378;2022-10-30T03:03:40;95882.66;;;5.11;100.00
20077;BME280;12348;42.710;23.378;2022-10-30T03:06:08;95888.47;;;5.08;100.00
20077;BME280;12348;42.710;23.378;2022-10-30T03:08:36;95884.03;;;5.14;100.00
20077;BME280;12348;42.710;23.378;2022-10-30T03:11:05;95889.97;;;5.16;100.00
20077;BME280;12348;42.710;23.378;2022-10-30T03:13:33;95882.41;;;5.25;100.00
20077;BME280;12348;42.710;23.378;2022-10-30T03:16:01;95894.13;;;5.24;100.00
20077;BME280;12348;42.710;23.378;2022-10-30T03:18:28;95888.53;;;5.25;100.00
20077;BME280;12348;42.710;23.378;2022-10-30T03:20:57;95882.72;;;5.28;100.00
20077;BME280;12348;42.710;23.378;2022-10-30T03:23:24;95886.06;;;5.35;100.00
20077;BME280;12348;42.710;23.378;2022-10-30T03:25:52;95879.00;;;5.29;100.00
20077;BME280;12348;42.710;23.378;2022-10-30T03:28:20;95884.59;;;5.28;100.00
20077;BME280;12348;42.710;23.378;2022-10-30T03:30:48;95882.19;;;5.15;100.00
20077;BME280;12348;42.710;23.378;2022-10-30T03:33:16;95879.97;;;5.11;100.00
20077;BME280;12348;42.710;23.378;2022-10-30T03:35:43;95890.91;;;5.10;100.00
20077;BME280;12348;42.710;23.378;2022-10-30T03:38:10;95889.50;;;5.07;100.00
20077;BME280;12348;42.710;23.378;2022-10-30T03:40:37;95891.84;;;5.04;100.00
20077;BME280;12348;42.710;23.378;2022-10-30T03:43:04;95885.94;;;5.02;100.00
20077;BME280;12348;42.710;23.378;2022-10-30T03:45:31;95886.16;;;5.00;100.00
20077;BME280;12348;42.710;23.378;2022-10-30T03:48:00;95882.13;;;4.98;100.00
20077;BME280;12348;42.710;23.378;2022-10-30T03:50:27;95884.44;;;4.94;100.00
20077;BME280;12348;42.710;23.378;2022-10-30T03:52:54;95882.84;;;4.93;100.00
20077;BME280;12348;42.710;23.378;2022-10-30T03:55:21;95878.44;;;4.87;100.00
20077;BME280;12348;42.710;23.378;2022-10-30T03:57:48;95876.56;;;4.88;100.00
20077;BME280;12348;42.710;23.378;2022-10-30T04:00:17;95877.97;;;4.67;100.00
20077;BME280;12348;42.710;23.378;2022-10-30T04:02:45;95865.81;;;4.71;100.00
20077;BME280;12348;42.710;23.378;2022-10-30T04:05:13;95873.59;;;4.60;100.00
20077;BME280;12348;42.710;23.378;2022-10-30T04:07:40;95870.91;;;4.72;100.00
20077;BME280;12348;42.710;23.378;2022-10-30T04:10:08;95882.50;;;4.66;100.00
20077;BME280;12348;42.710;23.378;2022-10-30T04:12:35;95884.50;;;4.71;100.00
20077;BME280;12348;42.710;23.378;2022-10-30T04:15:02;95874.16;;;4.62;100.00
20077;BME280;12348;42.710;23.378;2022-10-30T04:17:30;95873.81;;;4.59;100.00
20077;BME280;12348;42.710;23.378;2022-10-30T04:19:56;95872.66;;;4.55;100.00
20077;BME280;12348;42.710;23.378;2022-10-30T04:22:25;95866.16;;;4.62;100.00
20077;BME280;12348;42.710;23.378;2022-10-30T04:24:51;95871.50;;;4.62;100.00
20077;BME280;12348;42.710;23.378;2022-10-30T04:27:19;95865.47;;;4.67;100.00
20077;BME280;12348;42.710;23.378;2022-10-30T04:29:46;95870.66;;;4.74;100.00
20077;BME280;12348;42.710;23.378;2022-10-30T04:32:12;95862.19;;;4.77;100.00
20077;BME280;12348;42.710;23.378;2022-10-30T04:34:39;95864.78;;;4.72;100.00
20077;BME280;12348;42.710;23.378;2022-10-30T04:37:06;95870.47;;;4.64;100.00
20077;BME280;12348;42.710;23.378;2022-10-30T04:39:34;95874.06;;;4.57;100.00
20077;BME280;12348;42.710;23.378;2022-10-30T04:42:01;95872.31;;;4.51;100.00
20077;BME280;12348;42.710;23.378;2022-10-30T04:44:28;95870.69;;;4.50;100.00
20077;BME280;12348;42.710;23.378;2022-10-30T04:46:55;95869.53;;;4.46;100.00
20077;BME280;12348;42.710;23.378;2022-10-30T04:49:21;95868.72;;;4.46;100.00
20077;BME280;12348;42.710;23.378;2022-10-30T04:51:48;95878.44;;;4.52;100.00
20077;BME280;12348;42.710;23.378;2022-10-30T04:54:15;95879.28;;;4.52;100.00
20077;BME280;12348;42.710;23.378;2022-10-30T04:56:43;95876.72;;;4.57;100.00
20077;BME280;12348;42.710;23.378;2022-10-30T04:59:10;95876.81;;;4.62;100.00
20077;BME280;12348;42.710;23.378;2022-10-30T05:01:37;95878.69;;;4.62;100.00
20077;BME280;12348;42.710;23.378;2022-10-30T05:04:03;95877.75;;;4.68;100.00
20077;BME280;12348;42.710;23.378;2022-10-30T05:06:31;95885.97;;;4.67;100.00
20077;BME280;12348;42.710;23.378;2022-10-30T05:08:58;95886.69;;;4.85;100.00
20077;BME280;12348;42.710;23.378;2022-10-30T05:11:25;95891.22;;;5.25;100.00
20077;BME280;12348;42.710;23.378;2022-10-30T05:13:53;95884.50;;;5.80;100.00
20077;BME280;12348;42.710;23.378;2022-10-30T05:16:21;95885.09;;;6.49;100.00
20077;BME280;12348;42.710;23.378;2022-10-30T05:18:47;95882.88;;;6.80;100.00
20077;BME280;12348;42.710;23.378;2022-10-30T05:21:14;95889.09;;;7.24;100.00
20077;BME280;12348;42.710;23.378;2022-10-30T05:23:41;95889.22;;;7.62;100.00
20077;BME280;12348;42.710;23.378;2022-10-30T05:26:07;95896.59;;;8.63;100.00
20077;BME280;12348;42.710;23.378;2022-10-30T05:28:34;95895.06;;;9.19;100.00
20077;BME280;12348;42.710;23.378;2022-10-30T05:31:02;95899.47;;;9.51;100.00
20077;BME280;12348;42.710;23.378;2022-10-30T05:33:29;95903.88;;;9.93;100.00
20077;BME280;12348;42.710;23.378;2022-10-30T05:35:56;95901.28;;;10.49;100.00
20077;BME280;12348;42.710;23.378;2022-10-30T05:38:23;95901.81;;;10.72;100.00
20077;BME280;12348;42.710;23.378;2022-10-30T05:40:50;95897.34;;;11.47;100.00
20077;BME280;12348;42.710;23.378;2022-10-30T05:43:17;95900.81;;;12.07;100.00
20077;BME280;12348;42.710;23.378;2022-10-30T05:45:43;95894.78;;;11.76;95.46
20077;BME280;12348;42.710;23.378;2022-10-30T05:48:11;95898.28;;;10.97;100.00
20077;BME280;12348;42.710;23.378;2022-10-30T05:50:38;95896.94;;;10.99;100.00
20077;BME280;12348;42.710;23.378;2022-10-30T05:53:05;95892.78;;;11.97;94.92
20077;BME280;12348;42.710;23.378;2022-10-30T05:55:32;95892.63;;;13.15;88.40
20077;BME280;12348;42.710;23.378;2022-10-30T05:57:59;95897.66;;;14.31;80.42
20077;BME280;12348;42.710;23.378;2022-10-30T06:00:28;95891.94;;;15.45;72.46
20077;BME280;12348;42.710;23.378;2022-10-30T06:02:59;95890.75;;;16.29;68.79
20077;BME280;12348;42.710;23.378;2022-10-30T06:05:29;95886.66;;;17.47;61.92
20077;BME280;12348;42.710;23.378;2022-10-30T06:07:56;95880.59;;;18.07;57.49
20077;BME280;12348;42.710;23.378;2022-10-30T06:10:23;95893.16;;;17.29;59.26
20077;BME280;12348;42.710;23.378;2022-10-30T06:12:53;95890.53;;;17.46;59.52
20077;BME280;12348;42.710;23.378;2022-10-30T06:15:21;95884.19;;;16.52;63.88
20077;BME280;12348;42.710;23.378;2022-10-30T06:17:48;95879.97;;;17.13;61.92
20077;BME280;12348;42.710;23.378;2022-10-30T06:20:15;95878.66;;;17.82;59.46
20077;BME280;12348;42.710;23.378;2022-10-30T06:22:52;95887.47;;;17.96;58.72
20077;BME280;12348;42.710;23.378;2022-10-30T06:25:19;95896.31;;;17.93;58.02
20077;BME280;12348;42.710;23.378;2022-10-30T06:27:45;95886.25;;;18.80;55.70
20077;BME280;12348;42.710;23.378;2022-10-30T06:30:12;95883.94;;;19.55;53.07
20077;BME280;12348;42.710;23.378;2022-10-30T06:32:40;95888.88;;;20.00;51.07
20077;BME280;12348;42.710;23.378;2022-10-30T06:35:07;95894.88;;;19.00;55.09
20077;BME280;12348;42.710;23.378;2022-10-30T06:37:34;95888.97;;;19.53;51.98
20077;BME280;12348;42.710;23.378;2022-10-30T06:40:06;95885.69;;;19.60;52.80
20077;BME280;12348;42.710;23.378;2022-10-30T06:42:41;95887.34;;;19.05;54.19
20077;BME280;12348;42.710;23.378;2022-10-30T06:45:09;95884.50;;;20.08;51.40
20077;BME280;12348;42.710;23.378;2022-10-30T06:47:36;95889.53;;;19.68;50.23
20077;BME280;12348;42.710;23.378;2022-10-30T06:50:03;95901.63;;;19.49;52.91
20077;BME280;12348;42.710;23.378;2022-10-30T06:52:30;95902.66;;;19.83;52.70
20077;BME280;12348;42.710;23.378;2022-10-30T06:54:57;95887.41;;;19.35;53.89
20077;BME280;12348;42.710;23.378;2022-10-30T06:57:25;95898.59;;;18.26;57.50
20077;BME280;12348;42.710;23.378;2022-10-30T06:59:52;95894.16;;;20.56;52.21
20077;BME280;12348;42.710;23.378;2022-10-30T07:02:19;95889.84;;;22.84;46.23
20077;BME280;12348;42.710;23.378;2022-10-30T07:04:46;95893.91;;;21.48;47.37
20077;BME280;12348;42.710;23.378;2022-10-30T07:07:13;95892.47;;;21.18;48.89
20077;BME280;12348;42.710;23.378;2022-10-30T07:09:40;95894.84;;;20.86;48.95
20077;BME280;12348;42.710;23.378;2022-10-30T07:12:07;95891.59;;;20.72;50.10
20077;BME280;12348;42.710;23.378;2022-10-30T07:14:36;95890.97;;;21.20;48.05
20077;BME280;12348;42.710;23.378;2022-10-30T07:17:03;95890.81;;;20.00;50.95
20077;BME280;12348;42.710;23.378;2022-10-30T07:19:30;95881.69;;;19.57;54.15
20077;BME280;12348;42.710;23.378;2022-10-30T07:21:57;95887.13;;;19.28;55.02
20077;BME280;12348;42.710;23.378;2022-10-30T07:24:23;95875.16;;;19.41;54.67
20077;BME280;12348;42.710;23.378;2022-10-30T07:26:50;95868.75;;;19.37;55.21
20077;BME280;12348;42.710;23.378;2022-10-30T07:29:17;95866.09;;;19.20;55.93
20077;BME280;12348;42.710;23.378;2022-10-30T07:31:46;95874.78;;;19.04;56.75
20077;BME280;12348;42.710;23.378;2022-10-30T07:34:14;95877.44;;;18.83;57.22
20077;BME280;12348;42.710;23.378;2022-10-30T07:36:40;95875.53;;;19.31;56.91
20077;BME280;12348;42.710;23.378;2022-10-30T07:39:07;95873.34;;;19.63;56.57
20077;BME280;12348;42.710;23.378;2022-10-30T07:41:34;95873.38;;;19.45;56.34
20077;BME280;12348;42.710;23.378;2022-10-30T07:44:01;95866.88;;;19.29;57.60
20077;BME280;12348;42.710;23.378;2022-10-30T07:46:28;95865.59;;;20.66;52.51
20077;BME280;12348;42.710;23.378;2022-10-30T07:48:56;95864.63;;;20.20;53.86
20077;BME280;12348;42.710;23.378;2022-10-30T07:51:23;95860.91;;;19.74;56.10
20077;BME280;12348;42.710;23.378;2022-10-30T07:53:50;95855.03;;;20.34;55.44
20077;BME280;12348;42.710;23.378;2022-10-30T07:56:16;95860.38;;;20.10;55.77
20077;BME280;12348;42.710;23.378;2022-10-30T07:58:43;95861.06;;;20.28;55.71
20077;BME280;12348;42.710;23.378;2022-10-30T08:01:10;95859.94;;;20.20;56.46
20077;BME280;12348;42.710;23.378;2022-10-30T08:03:37;95852.16;;;19.04;62.08
20077;BME280;12348;42.710;23.378;2022-10-30T08:06:05;95841.22;;;20.31;55.78
20077;BME280;12348;42.710;23.378;2022-10-30T08:08:32;95846.19;;;21.04;54.34
20077;BME280;12348;42.710;23.378;2022-10-30T08:10:59;95843.72;;;22.21;50.18
20077;BME280;12348;42.710;23.378;2022-10-30T08:13:25;95844.75;;;22.29;48.99
20077;BME280;12348;42.710;23.378;2022-10-30T08:15:53;95834.03;;;21.99;49.94
20077;BME280;12348;42.710;23.378;2022-10-30T08:18:20;95830.81;;;21.12;52.73
20077;BME280;12348;42.710;23.378;2022-10-30T08:20:48;95832.13;;;20.93;54.68
20077;BME280;12348;42.710;23.378;2022-10-30T08:23:17;95831.34;;;21.05;53.58
20077;BME280;12348;42.710;23.378;2022-10-30T08:25:46;95832.88;;;21.27;53.57
20077;BME280;12348;42.710;23.378;2022-10-30T08:28:12;95834.22;;;22.31;50.40
20077;BME280;12348;42.710;23.378;2022-10-30T08:30:40;95823.16;;;21.05;54.86
20077;BME280;12348;42.710;23.378;2022-10-30T08:33:09;95821.59;;;20.83;55.63
20077;BME280;12348;42.710;23.378;2022-10-30T08:35:38;95818.22;;;21.56;54.40
20077;BME280;12348;42.710;23.378;2022-10-30T08:38:04;95829.91;;;22.86;50.48
20077;BME280;12348;42.710;23.378;2022-10-30T08:40:33;95826.00;;;22.87;49.71
20077;BME280;12348;42.710;23.378;2022-10-30T08:42:59;95821.50;;;21.49;55.32
20077;BME280;12348;42.710;23.378;2022-10-30T08:45:26;95816.59;;;21.43;57.31
20077;BME280;12348;42.710;23.378;2022-10-30T08:47:57;95820.66;;;22.22;53.45
20077;BME280;12348;42.710;23.378;2022-10-30T08:50:24;95805.84;;;23.59;50.40
20077;BME280;12348;42.710;23.378;2022-10-30T08:52:51;95814.88;;;24.46;47.07
20077;BME280;12348;42.710;23.378;2022-10-30T08:55:18;95807.13;;;24.32;46.13
20077;BME280;12348;42.710;23.378;2022-10-30T08:57:46;95809.88;;;24.32;46.60
20077;BME280;12348;42.710;23.378;2022-10-30T09:00:13;95806.13;;;24.40;46.65
20077;BME280;12348;42.710;23.378;2022-10-30T09:02:40;95804.00;;;24.33;46.82
20077;BME280;12348;42.710;23.378;2022-10-30T09:05:07;95795.78;;;23.82;47.90
20077;BME280;12348;42.710;23.378;2022-10-30T09:07:34;95802.88;;;22.44;52.66
20077;BME280;12348;42.710;23.378;2022-10-30T09:10:01;95798.16;;;23.17;51.75
20077;BME280;12348;42.710;23.378;2022-10-30T09:12:28;95800.84;;;22.57;53.29
20077;BME280;12348;42.710;23.378;2022-10-30T09:14:56;95791.00;;;22.84;51.86
20077;BME280;12348;42.710;23.378;2022-10-30T09:17:23;95790.09;;;23.24;50.85
20077;BME280;12348;42.710;23.378;2022-10-30T09:19:50;95779.97;;;23.28;51.65
20077;BME280;12348;42.710;23.378;2022-10-30T09:22:17;95787.06;;;24.70;47.66
20077;BME280;12348;42.710;23.378;2022-10-30T09:24:44;95779.06;;;24.07;48.04
20077;BME280;12348;42.710;23.378;2022-10-30T09:27:11;95778.91;;;24.00;48.71
20077;BME280;12348;42.710;23.378;2022-10-30T09:29:37;95778.03;;;24.15;48.89
20077;BME280;12348;42.710;23.378;2022-10-30T09:32:06;95781.78;;;24.42;47.42
20077;BME280;12348;42.710;23.378;2022-10-30T09:34:34;95783.16;;;22.70;53.34
20077;BME280;12348;42.710;23.378;2022-10-30T09:37:02;95771.03;;;22.71;53.77
20077;BME280;12348;42.710;23.378;2022-10-30T09:39:29;95761.72;;;23.04;52.74
20077;BME280;12348;42.710;23.378;2022-10-30T09:42:14;95758.19;;;23.86;49.59
20077;BME280;12348;42.710;23.378;2022-10-30T09:44:54;95752.47;;;25.15;46.09
20077;BME280;12348;42.710;23.378;2022-10-30T09:47:34;95749.53;;;23.53;48.53
20077;BME280;12348;42.710;23.378;2022-10-30T09:50:17;95740.06;;;23.18;50.70
20077;BME280;12348;42.710;23.378;2022-10-30T09:52:57;95752.16;;;22.70;52.26
20077;BME280;12348;42.710;23.378;2022-10-30T09:55:33;95743.09;;;22.54;52.97
20077;BME280;12348;42.710;23.378;2022-10-30T09:58:20;95744.38;;;22.28;53.97
20077;BME280;12348;42.710;23.378;2022-10-30T10:00:52;95733.13;;;23.91;48.85
20077;BME280;12348;42.710;23.378;2022-10-30T10:03:50;95732.84;;;25.20;45.68
20077;BME280;12348;42.710;23.378;2022-10-30T10:06:19;95733.69;;;26.34;43.13
20077;BME280;12348;42.710;23.378;2022-10-30T10:08:49;95725.44;;;25.77;43.40
20077;BME280;12348;42.710;23.378;2022-10-30T10:11:21;95720.19;;;25.95;43.59
20077;BME280;12348;42.710;23.378;2022-10-30T10:13:53;95699.94;;;25.57;43.55
20077;BME280;12348;42.710;23.378;2022-10-30T10:16:26;95703.41;;;26.07;42.26
20077;BME280;12348;42.710;23.378;2022-10-30T10:19:01;95694.69;;;25.49;42.84
20077;BME280;12348;42.710;23.378;2022-10-30T10:21:36;95688.91;;;25.08;44.00
20077;BME280;12348;42.710;23.378;2022-10-30T10:24:19;95683.41;;;25.08;43.67
20077;BME280;12348;42.710;23.378;2022-10-30T10:26:55;95681.69;;;25.49;43.23
20077;BME280;12348;42.710;23.378;2022-10-30T10:29:33;95680.41;;;25.43;43.48
20077;BME280;12348;42.710;23.378;2022-10-30T10:32:26;95674.03;;;25.92;41.67
20077;BME280;12348;42.710;23.378;2022-10-30T10:38:07;95674.31;;;25.57;43.72
20077;BME280;12348;42.710;23.378;2022-10-30T10:40:53;95663.56;;;26.08;41.52
20077;BME280;12348;42.710;23.378;2022-10-30T10:43:45;95665.72;;;25.89;41.77
20077;BME280;12348;42.710;23.378;2022-10-30T10:46:34;95652.38;;;24.88;44.08
20077;BME280;12348;42.710;23.378;2022-10-30T10:49:38;95657.91;;;24.88;43.25
20077;BME280;12348;42.710;23.378;2022-10-30T10:52:32;95652.22;;;25.83;42.57
20077;BME280;12348;42.710;23.378;2022-10-30T10:55:08;95648.56;;;25.19;43.23
20077;BME280;12348;42.710;23.378;2022-10-30T10:57:40;95635.78;;;25.94;41.13
20077;BME280;12348;42.710;23.378;2022-10-30T11:00:16;95637.16;;;25.77;41.21
20077;BME280;12348;42.710;23.378;2022-10-30T11:02:54;95636.72;;;26.05;40.92
20077;BME280;12348;42.710;23.378;2022-10-30T11:05:34;95632.50;;;25.81;42.17
20077;BME280;12348;42.710;23.378;2022-10-30T11:08:22;95623.84;;;25.83;41.45
20077;BME280;12348;42.710;23.378;2022-10-30T11:10:55;95624.72;;;25.91;41.30
20077;BME280;12348;42.710;23.378;2022-10-30T11:13:23;95623.38;;;25.47;42.89
20077;BME280;12348;42.710;23.378;2022-10-30T11:15:57;95619.63;;;25.93;41.95
20077;BME280;12348;42.710;23.378;2022-10-30T11:18:29;95617.38;;;25.72;42.55
20077;BME280;12348;42.710;23.378;2022-10-30T11:20:59;95616.28;;;25.50;43.21
20077;BME280;12348;42.710;23.378;2022-10-30T11:23:36;95612.25;;;25.40;43.07
20077;BME280;12348;42.710;23.378;2022-10-30T11:26:25;95596.19;;;25.79;42.48
20077;BME280;12348;42.710;23.378;2022-10-30T11:28:54;95589.66;;;25.31;43.24
20077;BME280;12348;42.710;23.378;2022-10-30T11:31:23;95584.63;;;25.36;43.26
20077;BME280;12348;42.710;23.378;2022-10-30T11:33:57;95579.41;;;25.61;43.06
20077;BME280;12348;42.710;23.378;2022-10-30T11:36:30;95578.00;;;26.46;40.93
20077;BME280;12348;42.710;23.378;2022-10-30T11:39:10;95578.44;;;26.55;39.86
20077;BME280;12348;42.710;23.378;2022-10-30T11:41:37;95573.91;;;26.80;39.96
20077;BME280;12348;42.710;23.378;2022-10-30T11:44:05;95568.59;;;26.54;39.80
20077;BME280;12348;42.710;23.378;2022-10-30T11:46:35;95569.88;;;26.67;39.81
20077;BME280;12348;42.710;23.378;2022-10-30T11:49:02;95566.25;;;26.56;40.00
20077;BME280;12348;42.710;23.378;2022-10-30T11:51:33;95565.25;;;26.38;40.53
20077;BME280;12348;42.710;23.378;2022-10-30T11:54:01;95565.34;;;26.45;39.67
20077;BME280;12348;42.710;23.378;2022-10-30T11:56:30;95564.50;;;26.89;38.84
20077;BME280;12348;42.710;23.378;2022-10-30T11:59:00;95550.56;;;26.67;39.67
20077;BME280;12348;42.710;23.378;2022-10-30T12:01:29;95547.50;;;26.83;39.40
20077;BME280;12348;42.710;23.378;2022-10-30T12:04:21;95549.06;;;26.84;38.54
20077;BME280;12348;42.710;23.378;2022-10-30T12:07:06;95542.38;;;26.81;38.35
20077;BME280;12348;42.710;23.378;2022-10-30T12:09:41;95544.66;;;26.72;37.43
20077;BME280;12348;42.710;23.378;2022-10-30T12:12:20;95537.41;;;26.13;38.70
20077;BME280;12348;42.710;23.378;2022-10-30T12:15:08;95537.22;;;26.35;37.37
20077;BME280;12348;42.710;23.378;2022-10-30T12:17:37;95533.25;;;26.29;37.06
20077;BME280;12348;42.710;23.378;2022-10-30T12:20:20;95525.16;;;26.10;38.60
20077;BME280;12348;42.710;23.378;2022-10-30T12:22:48;95524.94;;;25.85;37.78
20077;BME280;12348;42.710;23.378;2022-10-30T12:25:22;95522.50;;;26.21;37.33
20077;BME280;12348;42.710;23.378;2022-10-30T12:27:59;95519.63;;;26.51;37.34
20077;BME280;12348;42.710;23.378;2022-10-30T12:30:29;95526.41;;;26.16;37.49
20077;BME280;12348;42.710;23.378;2022-10-30T12:32:59;95515.84;;;25.84;38.47
20077;BME280;12348;42.710;23.378;2022-10-30T12:35:41;95520.84;;;25.75;38.12
20077;BME280;12348;42.710;23.378;2022-10-30T12:38:16;95515.31;;;25.75;38.70
20077;BME280;12348;42.710;23.378;2022-10-30T12:40:56;95510.34;;;25.84;38.48
20077;BME280;12348;42.710;23.378;2022-10-30T12:43:26;95504.16;;;25.98;38.55
20077;BME280;12348;42.710;23.378;2022-10-30T12:45:58;95509.81;;;25.75;38.91
20077;BME280;12348;42.710;23.378;2022-10-30T12:48:39;95511.91;;;25.85;38.49
20077;BME280;12348;42.710;23.378;2022-10-30T12:51:17;95510.91;;;25.67;37.77
20077;BME280;12348;42.710;23.378;2022-10-30T12:53:48;95503.09;;;25.76;37.92
20077;BME280;12348;42.710;23.378;2022-10-30T12:56:23;95503.09;;;25.76;38.02
20077;BME280;12348;42.710;23.378;2022-10-30T12:59:15;95497.69;;;25.83;37.70
20077;BME280;12348;42.710;23.378;2022-10-30T13:01:50;95497.88;;;25.64;38.55
20077;BME280;12348;42.710;23.378;2022-10-30T13:04:23;95494.91;;;25.46;38.68
20077;BME280;12348;42.710;23.378;2022-10-30T13:06:54;95498.47;;;25.17;38.72
20077;BME280;12348;42.710;23.378;2022-10-30T13:09:26;95491.56;;;25.00;39.53